Terminal Aerodrome Forecast
Issued by NWS Grand Forks, ND

Home | Current Version | Previous Version | Text Only | Print | Product List | Glossary Off
Versions: 1 2 3 4 5 6 7 8 9 10 11 12 13

000
FTUS43 KFGF 211100
TAFFAR
TAF
KFAR 211120Z 2112/2212 15015KT P6SM SKC
     FM211800 16024G34KT P6SM SKC
     FM220600 16017G25KT P6SM BKN120=

USA.gov is the U.S. government's official web portal to all federal, state and local government web resources and services.